sensor_id;sensor_type;location;lat;lon;timestamp;temperature;humidity
35381;DHT22;21486;51.916;8.378;2023-05-20T00:00:27;13.80;67.50
35381;DHT22;21486;51.916;8.378;2023-05-20T00:02:53;13.90;66.70
35381;DHT22;21486;51.916;8.378;2023-05-20T00:05:18;13.90;66.30
35381;DHT22;21486;51.916;8.378;2023-05-20T00:07:44;13.80;66.40
35381;DHT22;21486;51.916;8.378;2023-05-20T00:10:10;13.80;66.80
35381;DHT22;21486;51.916;8.378;2023-05-20T00:12:37;13.70;66.70
35381;DHT22;21486;51.916;8.378;2023-05-20T00:15:03;13.80;66.40
35381;DHT22;21486;51.916;8.378;2023-05-20T00:17:29;13.80;66.50
35381;DHT22;21486;51.916;8.378;2023-05-20T00:19:55;13.90;66.50
35381;DHT22;21486;51.916;8.378;2023-05-20T00:22:21;13.90;66.10
35381;DHT22;21486;51.916;8.378;2023-05-20T00:24:46;13.80;66.50
35381;DHT22;21486;51.916;8.378;2023-05-20T00:27:12;13.70;67.30
35381;DHT22;21486;51.916;8.378;2023-05-20T00:29:37;13.80;67.40
35381;DHT22;21486;51.916;8.378;2023-05-20T00:33:02;13.80;66.70
35381;DHT22;21486;51.916;8.378;2023-05-20T00:35:27;13.80;66.70
35381;DHT22;21486;51.916;8.378;2023-05-20T00:37:53;13.70;66.80
35381;DHT22;21486;51.916;8.378;2023-05-20T00:40:18;13.80;68.10
35381;DHT22;21486;51.916;8.378;2023-05-20T00:42:46;13.70;67.20
35381;DHT22;21486;51.916;8.378;2023-05-20T00:45:11;13.70;67.40
35381;DHT22;21486;51.916;8.378;2023-05-20T00:47:37;13.60;67.90
35381;DHT22;21486;51.916;8.378;2023-05-20T00:50:03;13.60;69.10
35381;DHT22;21486;51.916;8.378;2023-05-20T00:52:31;13.40;69.30
35381;DHT22;21486;51.916;8.378;2023-05-20T00:54:57;13.50;71.10
35381;DHT22;21486;51.916;8.378;2023-05-20T00:57:24;13.30;70.00
35381;DHT22;21486;51.916;8.378;2023-05-20T00:59:50;13.30;70.70
35381;DHT22;21486;51.916;8.378;2023-05-20T01:02:15;13.30;70.20
35381;DHT22;21486;51.916;8.378;2023-05-20T01:04:41;13.30;70.50
35381;DHT22;21486;51.916;8.378;2023-05-20T01:07:12;13.30;69.70
35381;DHT22;21486;51.916;8.378;2023-05-20T01:09:39;13.30;70.50
35381;DHT22;21486;51.916;8.378;2023-05-20T01:12:11;13.20;70.50
35381;DHT22;21486;51.916;8.378;2023-05-20T01:14:47;13.10;71.50
35381;DHT22;21486;51.916;8.378;2023-05-20T01:17:14;13.40;71.40
35381;DHT22;21486;51.916;8.378;2023-05-20T01:19:43;13.30;71.10
35381;DHT22;21486;51.916;8.378;2023-05-20T01:22:10;13.30;70.80
35381;DHT22;21486;51.916;8.378;2023-05-20T01:24:42;13.20;71.30
35381;DHT22;21486;51.916;8.378;2023-05-20T01:27:11;13.20;71.00
35381;DHT22;21486;51.916;8.378;2023-05-20T01:29:38;13.20;70.60
35381;DHT22;21486;51.916;8.378;2023-05-20T01:32:14;13.30;71.50
35381;DHT22;21486;51.916;8.378;2023-05-20T01:34:42;13.30;71.60
35381;DHT22;21486;51.916;8.378;2023-05-20T01:37:09;13.20;71.10
35381;DHT22;21486;51.916;8.378;2023-05-20T01:39:35;13.10;71.20
35381;DHT22;21486;51.916;8.378;2023-05-20T01:42:03;13.00;72.80
35381;DHT22;21486;51.916;8.378;2023-05-20T01:44:29;12.90;72.30
35381;DHT22;21486;51.916;8.378;2023-05-20T01:46:55;12.90;72.60
35381;DHT22;21486;51.916;8.378;2023-05-20T01:49:21;12.80;72.90
35381;DHT22;21486;51.916;8.378;2023-05-20T01:51:46;12.80;73.90
35381;DHT22;21486;51.916;8.378;2023-05-20T01:54:12;12.70;75.00
35381;DHT22;21486;51.916;8.378;2023-05-20T01:56:37;12.70;74.80
35381;DHT22;21486;51.916;8.378;2023-05-20T01:59:03;12.70;75.20
35381;DHT22;21486;51.916;8.378;2023-05-20T02:01:28;12.60;75.30
35381;DHT22;21486;51.916;8.378;2023-05-20T02:03:54;12.70;76.10
35381;DHT22;21486;51.916;8.378;2023-05-20T02:06:19;12.70;74.90
35381;DHT22;21486;51.916;8.378;2023-05-20T02:08:45;12.60;75.40
35381;DHT22;21486;51.916;8.378;2023-05-20T02:11:10;12.60;75.10
35381;DHT22;21486;51.916;8.378;2023-05-20T02:13:36;12.60;75.10
35381;DHT22;21486;51.916;8.378;2023-05-20T02:16:01;12.60;75.00
35381;DHT22;21486;51.916;8.378;2023-05-20T02:18:27;12.60;75.50
35381;DHT22;21486;51.916;8.378;2023-05-20T02:20:52;12.50;75.50
35381;DHT22;21486;51.916;8.378;2023-05-20T02:23:18;12.60;76.00
35381;DHT22;21486;51.916;8.378;2023-05-20T02:25:45;12.40;76.80
35381;DHT22;21486;51.916;8.378;2023-05-20T02:28:10;12.50;77.20
35381;DHT22;21486;51.916;8.378;2023-05-20T02:30:38;12.30;78.10
35381;DHT22;21486;51.916;8.378;2023-05-20T02:33:04;12.20;78.80
35381;DHT22;21486;51.916;8.378;2023-05-20T02:35:31;12.20;78.40
35381;DHT22;21486;51.916;8.378;2023-05-20T02:37:56;12.20;78.40
35381;DHT22;21486;51.916;8.378;2023-05-20T02:40:22;12.30;78.10
35381;DHT22;21486;51.916;8.378;2023-05-20T02:42:47;12.20;78.10
35381;DHT22;21486;51.916;8.378;2023-05-20T02:45:13;12.20;78.50
35381;DHT22;21486;51.916;8.378;2023-05-20T02:47:39;12.00;78.80
35381;DHT22;21486;51.916;8.378;2023-05-20T02:50:04;12.10;79.60
35381;DHT22;21486;51.916;8.378;2023-05-20T02:52:31;12.00;78.90
35381;DHT22;21486;51.916;8.378;2023-05-20T02:54:57;12.00;80.20
35381;DHT22;21486;51.916;8.378;2023-05-20T02:57:22;12.00;80.40
35381;DHT22;21486;51.916;8.378;2023-05-20T02:59:48;11.90;81.10
35381;DHT22;21486;51.916;8.378;2023-05-20T03:02:13;11.90;82.10
35381;DHT22;21486;51.916;8.378;2023-05-20T03:04:39;11.80;81.80
35381;DHT22;21486;51.916;8.378;2023-05-20T03:07:08;11.80;82.20
35381;DHT22;21486;51.916;8.378;2023-05-20T03:09:34;12.10;81.20
35381;DHT22;21486;51.916;8.378;2023-05-20T03:11:59;11.90;82.50
35381;DHT22;21486;51.916;8.378;2023-05-20T03:14:25;11.80;82.60
35381;DHT22;21486;51.916;8.378;2023-05-20T03:16:50;11.80;84.90
35381;DHT22;21486;51.916;8.378;2023-05-20T03:19:16;11.60;85.00
35381;DHT22;21486;51.916;8.378;2023-05-20T03:21:42;11.60;83.60
35381;DHT22;21486;51.916;8.378;2023-05-20T03:24:08;11.50;84.80
35381;DHT22;21486;51.916;8.378;2023-05-20T03:26:35;11.60;84.40
35381;DHT22;21486;51.916;8.378;2023-05-20T03:29:02;11.60;85.00
35381;DHT22;21486;51.916;8.378;2023-05-20T03:31:27;11.60;85.10
35381;DHT22;21486;51.916;8.378;2023-05-20T03:33:53;11.50;86.00
35381;DHT22;21486;51.916;8.378;2023-05-20T03:36:19;11.50;85.60
35381;DHT22;21486;51.916;8.378;2023-05-20T03:38:45;11.60;85.50
35381;DHT22;21486;51.916;8.378;2023-05-20T03:41:10;11.80;84.20
35381;DHT22;21486;51.916;8.378;2023-05-20T03:43:36;11.70;85.30
35381;DHT22;21486;51.916;8.378;2023-05-20T03:46:01;11.70;84.50
35381;DHT22;21486;51.916;8.378;2023-05-20T03:48:27;11.70;84.10
35381;DHT22;21486;51.916;8.378;2023-05-20T03:50:52;11.70;84.40
35381;DHT22;21486;51.916;8.378;2023-05-20T03:53:18;11.50;84.40
35381;DHT22;21486;51.916;8.378;2023-05-20T03:55:45;11.60;85.10
35381;DHT22;21486;51.916;8.378;2023-05-20T03:58:10;11.60;86.30
35381;DHT22;21486;51.916;8.378;2023-05-20T04:00:38;11.70;85.30
35381;DHT22;21486;51.916;8.378;2023-05-20T04:03:04;11.60;84.90
35381;DHT22;21486;51.916;8.378;2023-05-20T04:05:30;11.70;84.50
35381;DHT22;21486;51.916;8.378;2023-05-20T04:07:55;11.70;85.10
35381;DHT22;21486;51.916;8.378;2023-05-20T04:10:21;11.60;85.90
35381;DHT22;21486;51.916;8.378;2023-05-20T04:12:47;11.60;85.70
35381;DHT22;21486;51.916;8.378;2023-05-20T04:15:13;11.60;85.50
35381;DHT22;21486;51.916;8.378;2023-05-20T04:17:39;11.60;85.30
35381;DHT22;21486;51.916;8.378;2023-05-20T04:20:06;11.70;84.90
35381;DHT22;21486;51.916;8.378;2023-05-20T04:22:33;11.70;84.70
35381;DHT22;21486;51.916;8.378;2023-05-20T04:24:58;11.70;84.90
35381;DHT22;21486;51.916;8.378;2023-05-20T04:27:24;11.70;84.70
35381;DHT22;21486;51.916;8.378;2023-05-20T04:29:51;11.70;84.50
35381;DHT22;21486;51.916;8.378;2023-05-20T04:32:18;12.00;84.10
35381;DHT22;21486;51.916;8.378;2023-05-20T04:34:44;12.50;82.30
35381;DHT22;21486;51.916;8.378;2023-05-20T04:37:10;13.00;79.80
35381;DHT22;21486;51.916;8.378;2023-05-20T04:39:36;13.50;77.10
35381;DHT22;21486;51.916;8.378;2023-05-20T04:42:03;14.00;75.20
35381;DHT22;21486;51.916;8.378;2023-05-20T04:44:29;14.70;72.50
35381;DHT22;21486;51.916;8.378;2023-05-20T04:46:55;15.50;69.00
35381;DHT22;21486;51.916;8.378;2023-05-20T04:49:22;15.70;67.00
35381;DHT22;21486;51.916;8.378;2023-05-20T04:51:50;15.90;66.00
35381;DHT22;21486;51.916;8.378;2023-05-20T04:54:16;15.80;66.20
35381;DHT22;21486;51.916;8.378;2023-05-20T04:56:45;15.80;66.80
35381;DHT22;21486;51.916;8.378;2023-05-20T04:59:11;15.50;67.00
35381;DHT22;21486;51.916;8.378;2023-05-20T05:01:37;15.50;67.00
35381;DHT22;21486;51.916;8.378;2023-05-20T05:04:02;15.10;68.70
35381;DHT22;21486;51.916;8.378;2023-05-20T05:06:28;14.80;69.50
35381;DHT22;21486;51.916;8.378;2023-05-20T05:08:53;15.00;69.50
35381;DHT22;21486;51.916;8.378;2023-05-20T05:11:19;15.40;67.80
35381;DHT22;21486;51.916;8.378;2023-05-20T05:13:45;15.90;66.10
35381;DHT22;21486;51.916;8.378;2023-05-20T05:16:11;16.40;64.60
35381;DHT22;21486;51.916;8.378;2023-05-20T05:18:37;16.80;64.00
35381;DHT22;21486;51.916;8.378;2023-05-20T05:21:03;17.00;62.30
35381;DHT22;21486;51.916;8.378;2023-05-20T05:23:30;17.00;62.60
35381;DHT22;21486;51.916;8.378;2023-05-20T05:25:55;17.00;62.20
35381;DHT22;21486;51.916;8.378;2023-05-20T05:28:21;17.00;62.30
35381;DHT22;21486;51.916;8.378;2023-05-20T05:30:47;17.40;61.80
35381;DHT22;21486;51.916;8.378;2023-05-20T05:33:13;17.40;61.90
35381;DHT22;21486;51.916;8.378;2023-05-20T05:35:40;17.50;60.40
35381;DHT22;21486;51.916;8.378;2023-05-20T05:38:06;17.20;60.80
35381;DHT22;21486;51.916;8.378;2023-05-20T05:40:32;16.20;63.60
35381;DHT22;21486;51.916;8.378;2023-05-20T05:42:57;15.40;67.10
35381;DHT22;21486;51.916;8.378;2023-05-20T05:45:23;14.60;69.70
35381;DHT22;21486;51.916;8.378;2023-05-20T05:47:48;14.00;72.60
35381;DHT22;21486;51.916;8.378;2023-05-20T05:50:14;13.60;74.20
35381;DHT22;21486;51.916;8.378;2023-05-20T05:52:39;13.30;77.00
35381;DHT22;21486;51.916;8.378;2023-05-20T05:55:06;13.10;78.00
35381;DHT22;21486;51.916;8.378;2023-05-20T05:57:32;13.10;78.10
35381;DHT22;21486;51.916;8.378;2023-05-20T05:59:57;13.20;78.10
35381;DHT22;21486;51.916;8.378;2023-05-20T06:02:23;13.30;79.10
35381;DHT22;21486;51.916;8.378;2023-05-20T06:04:49;13.30;78.10
35381;DHT22;21486;51.916;8.378;2023-05-20T06:07:14;13.20;78.60
35381;DHT22;21486;51.916;8.378;2023-05-20T06:09:40;13.10;79.60
35381;DHT22;21486;51.916;8.378;2023-05-20T06:12:06;13.20;79.50
35381;DHT22;21486;51.916;8.378;2023-05-20T06:14:31;13.20;79.80
35381;DHT22;21486;51.916;8.378;2023-05-20T06:16:57;13.20;79.30
35381;DHT22;21486;51.916;8.378;2023-05-20T06:19:22;13.10;80.10
35381;DHT22;21486;51.916;8.378;2023-05-20T06:21:48;13.20;80.50
35381;DHT22;21486;51.916;8.378;2023-05-20T06:24:13;13.30;80.60
35381;DHT22;21486;51.916;8.378;2023-05-20T06:26:40;13.40;79.30
35381;DHT22;21486;51.916;8.378;2023-05-20T06:29:05;13.40;80.70
35381;DHT22;21486;51.916;8.378;2023-05-20T06:31:31;13.50;80.00
35381;DHT22;21486;51.916;8.378;2023-05-20T06:33:56;13.60;80.30
35381;DHT22;21486;51.916;8.378;2023-05-20T06:36:22;13.70;80.30
35381;DHT22;21486;51.916;8.378;2023-05-20T06:38:48;13.90;79.40
35381;DHT22;21486;51.916;8.378;2023-05-20T06:41:13;14.00;79.60
35381;DHT22;21486;51.916;8.378;2023-05-20T06:43:39;14.00;77.90
35381;DHT22;21486;51.916;8.378;2023-05-20T06:46:05;13.90;78.30
35381;DHT22;21486;51.916;8.378;2023-05-20T06:48:31;13.90;78.40
35381;DHT22;21486;51.916;8.378;2023-05-20T06:50:56;14.00;78.60
35381;DHT22;21486;51.916;8.378;2023-05-20T06:53:22;14.30;78.30
35381;DHT22;21486;51.916;8.378;2023-05-20T06:55:47;14.40;77.30
35381;DHT22;21486;51.916;8.378;2023-05-20T06:58:13;14.60;77.30
35381;DHT22;21486;51.916;8.378;2023-05-20T07:00:38;14.70;76.30
35381;DHT22;21486;51.916;8.378;2023-05-20T07:03:04;14.70;76.80
35381;DHT22;21486;51.916;8.378;2023-05-20T07:05:29;15.00;76.10
35381;DHT22;21486;51.916;8.378;2023-05-20T07:07:56;15.10;75.70
35381;DHT22;21486;51.916;8.378;2023-05-20T07:10:21;14.80;75.40
35381;DHT22;21486;51.916;8.378;2023-05-20T07:12:47;14.90;76.00
35381;DHT22;21486;51.916;8.378;2023-05-20T07:15:12;14.70;76.40
35381;DHT22;21486;51.916;8.378;2023-05-20T07:17:38;14.70;76.60
35381;DHT22;21486;51.916;8.378;2023-05-20T07:20:04;14.80;76.50
35381;DHT22;21486;51.916;8.378;2023-05-20T07:22:30;15.00;76.20
35381;DHT22;21486;51.916;8.378;2023-05-20T07:24:55;15.20;78.10
35381;DHT22;21486;51.916;8.378;2023-05-20T07:27:21;15.60;76.20
35381;DHT22;21486;51.916;8.378;2023-05-20T07:29:47;15.70;74.70
35381;DHT22;21486;51.916;8.378;2023-05-20T07:32:12;15.80;74.60
35381;DHT22;21486;51.916;8.378;2023-05-20T07:34:38;15.90;74.50
35381;DHT22;21486;51.916;8.378;2023-05-20T07:37:03;16.00;74.20
35381;DHT22;21486;51.916;8.378;2023-05-20T07:39:30;15.90;74.00
35381;DHT22;21486;51.916;8.378;2023-05-20T07:41:55;16.00;74.30
35381;DHT22;21486;51.916;8.378;2023-05-20T07:44:21;15.80;74.50
35381;DHT22;21486;51.916;8.378;2023-05-20T07:46:47;15.90;75.60
35381;DHT22;21486;51.916;8.378;2023-05-20T07:49:13;16.00;75.70
35381;DHT22;21486;51.916;8.378;2023-05-20T07:51:38;16.10;74.30
35381;DHT22;21486;51.916;8.378;2023-05-20T07:54:04;16.20;74.60
35381;DHT22;21486;51.916;8.378;2023-05-20T07:56:29;16.40;73.40
35381;DHT22;21486;51.916;8.378;2023-05-20T07:58:57;16.50;72.30
35381;DHT22;21486;51.916;8.378;2023-05-20T08:01:23;16.70;71.20
35381;DHT22;21486;51.916;8.378;2023-05-20T08:03:49;16.70;71.30
35381;DHT22;21486;51.916;8.378;2023-05-20T08:06:15;16.80;70.90
35381;DHT22;21486;51.916;8.378;2023-05-20T08:08:41;17.00;71.00
35381;DHT22;21486;51.916;8.378;2023-05-20T08:11:07;17.10;71.10
35381;DHT22;21486;51.916;8.378;2023-05-20T08:13:33;17.40;70.30
35381;DHT22;21486;51.916;8.378;2023-05-20T08:15:58;17.50;69.00
35381;DHT22;21486;51.916;8.378;2023-05-20T08:18:24;17.30;69.50
35381;DHT22;21486;51.916;8.378;2023-05-20T08:20:51;17.50;68.80
35381;DHT22;21486;51.916;8.378;2023-05-20T08:23:17;17.60;68.30
35381;DHT22;21486;51.916;8.378;2023-05-20T08:25:42;17.70;67.80
35381;DHT22;21486;51.916;8.378;2023-05-20T08:28:11;18.10;68.00
35381;DHT22;21486;51.916;8.378;2023-05-20T08:30:36;18.20;66.30
35381;DHT22;21486;51.916;8.378;2023-05-20T08:33:02;18.10;65.40
35381;DHT22;21486;51.916;8.378;2023-05-20T08:35:28;18.00;66.30
35381;DHT22;21486;51.916;8.378;2023-05-20T08:37:53;18.20;65.70
35381;DHT22;21486;51.916;8.378;2023-05-20T08:40:20;18.40;64.50
35381;DHT22;21486;51.916;8.378;2023-05-20T08:42:49;18.40;63.20
35381;DHT22;21486;51.916;8.378;2023-05-20T08:45:18;18.20;63.90
35381;DHT22;21486;51.916;8.378;2023-05-20T08:47:44;18.00;64.40
35381;DHT22;21486;51.916;8.378;2023-05-20T08:50:11;18.10;64.90
35381;DHT22;21486;51.916;8.378;2023-05-20T08:52:42;18.40;63.90
35381;DHT22;21486;51.916;8.378;2023-05-20T08:55:13;19.20;64.00
35381;DHT22;21486;51.916;8.378;2023-05-20T08:57:39;20.50;59.90
35381;DHT22;21486;51.916;8.378;2023-05-20T09:00:07;21.40;57.00
35381;DHT22;21486;51.916;8.378;2023-05-20T09:02:38;22.10;55.20
35381;DHT22;21486;51.916;8.378;2023-05-20T09:05:04;22.80;53.50
35381;DHT22;21486;51.916;8.378;2023-05-20T09:07:30;22.90;52.20
35381;DHT22;21486;51.916;8.378;2023-05-20T09:09:56;22.30;52.70
35381;DHT22;21486;51.916;8.378;2023-05-20T09:12:22;21.80;54.10
35381;DHT22;21486;51.916;8.378;2023-05-20T09:14:48;21.60;54.50
35381;DHT22;21486;51.916;8.378;2023-05-20T09:17:13;21.20;55.30
35381;DHT22;21486;51.916;8.378;2023-05-20T09:19:39;20.60;56.50
35381;DHT22;21486;51.916;8.378;2023-05-20T09:22:05;20.50;56.90
35381;DHT22;21486;51.916;8.378;2023-05-20T09:24:31;20.40;57.30
35381;DHT22;21486;51.916;8.378;2023-05-20T09:26:57;20.60;58.50
35381;DHT22;21486;51.916;8.378;2023-05-20T09:29:24;20.70;56.60
35381;DHT22;21486;51.916;8.378;2023-05-20T09:31:50;20.60;56.90
35381;DHT22;21486;51.916;8.378;2023-05-20T09:34:16;21.30;55.80
35381;DHT22;21486;51.916;8.378;2023-05-20T09:36:43;22.30;53.80
35381;DHT22;21486;51.916;8.378;2023-05-20T09:39:13;23.30;51.10
35381;DHT22;21486;51.916;8.378;2023-05-20T09:41:52;23.50;51.40
35381;DHT22;21486;51.916;8.378;2023-05-20T09:44:20;24.20;50.60
35381;DHT22;21486;51.916;8.378;2023-05-20T09:46:46;25.10;48.20
35381;DHT22;21486;51.916;8.378;2023-05-20T09:49:14;25.70;47.30
35381;DHT22;21486;51.916;8.378;2023-05-20T09:51:41;25.90;45.50
35381;DHT22;21486;51.916;8.378;2023-05-20T09:54:08;24.40;48.00
35381;DHT22;21486;51.916;8.378;2023-05-20T09:56:35;24.20;47.50
35381;DHT22;21486;51.916;8.378;2023-05-20T09:59:01;24.20;48.50
35381;DHT22;21486;51.916;8.378;2023-05-20T10:01:29;23.20;48.90
35381;DHT22;21486;51.916;8.378;2023-05-20T10:03:55;23.10;51.40
35381;DHT22;21486;51.916;8.378;2023-05-20T10:06:45;23.30;49.60
35381;DHT22;21486;51.916;8.378;2023-05-20T10:12:38;23.80;48.50
35381;DHT22;21486;51.916;8.378;2023-05-20T10:15:29;23.80;49.60
35381;DHT22;21486;51.916;8.378;2023-05-20T10:18:02;23.50;49.50
35381;DHT22;21486;51.916;8.378;2023-05-20T10:20:30;23.30;50.20
35381;DHT22;21486;51.916;8.378;2023-05-20T10:22:56;23.00;50.10
35381;DHT22;21486;51.916;8.378;2023-05-20T10:25:27;21.50;52.90
35381;DHT22;21486;51.916;8.378;2023-05-20T10:28:07;20.90;53.90
35381;DHT22;21486;51.916;8.378;2023-05-20T10:30:33;21.30;53.60
35381;DHT22;21486;51.916;8.378;2023-05-20T10:33:03;21.90;53.80
35381;DHT22;21486;51.916;8.378;2023-05-20T10:35:29;22.30;52.40
35381;DHT22;21486;51.916;8.378;2023-05-20T10:38:10;22.70;51.50
35381;DHT22;21486;51.916;8.378;2023-05-20T10:40:36;22.00;52.30
35381;DHT22;21486;51.916;8.378;2023-05-20T10:43:10;22.10;51.80
35381;DHT22;21486;51.916;8.378;2023-05-20T10:45:54;22.10;52.10
35381;DHT22;21486;51.916;8.378;2023-05-20T10:48:26;21.80;53.40
35381;DHT22;21486;51.916;8.378;2023-05-20T10:50:56;21.70;53.50
35381;DHT22;21486;51.916;8.378;2023-05-20T10:53:24;21.10;55.30
35381;DHT22;21486;51.916;8.378;2023-05-20T10:55:52;20.80;55.30
35381;DHT22;21486;51.916;8.378;2023-05-20T10:58:23;20.70;56.60
35381;DHT22;21486;51.916;8.378;2023-05-20T11:00:51;20.40;56.40
35381;DHT22;21486;51.916;8.378;2023-05-20T11:03:17;20.20;58.00
35381;DHT22;21486;51.916;8.378;2023-05-20T11:05:46;20.00;57.20
35381;DHT22;21486;51.916;8.378;2023-05-20T11:08:12;19.90;57.80
35381;DHT22;21486;51.916;8.378;2023-05-20T11:10:38;19.80;58.50
35381;DHT22;21486;51.916;8.378;2023-05-20T11:13:04;19.90;58.60
35381;DHT22;21486;51.916;8.378;2023-05-20T11:15:30;19.80;59.50
35381;DHT22;21486;51.916;8.378;2023-05-20T11:18:01;19.70;57.60
35381;DHT22;21486;51.916;8.378;2023-05-20T11:20:27;19.30;59.10
35381;DHT22;21486;51.916;8.378;2023-05-20T11:22:53;19.20;60.00
35381;DHT22;21486;51.916;8.378;2023-05-20T11:25:19;19.10;60.90
35381;DHT22;21486;51.916;8.378;2023-05-20T11:27:46;19.00;61.40
35381;DHT22;21486;51.916;8.378;2023-05-20T11:30:15;18.70;62.00
35381;DHT22;21486;51.916;8.378;2023-05-20T11:32:43;18.80;62.80
35381;DHT22;21486;51.916;8.378;2023-05-20T11:35:21;19.00;61.80
35381;DHT22;21486;51.916;8.378;2023-05-20T11:37:54;19.20;61.50
35381;DHT22;21486;51.916;8.378;2023-05-20T11:40:24;19.30;61.30
35381;DHT22;21486;51.916;8.378;2023-05-20T11:42:53;19.20;60.50
35381;DHT22;21486;51.916;8.378;2023-05-20T11:45:19;19.20;60.70
35381;DHT22;21486;51.916;8.378;2023-05-20T11:47:44;19.00;61.20
35381;DHT22;21486;51.916;8.378;2023-05-20T11:50:10;19.20;62.10
35381;DHT22;21486;51.916;8.378;2023-05-20T11:52:41;19.30;61.00
35381;DHT22;21486;51.916;8.378;2023-05-20T11:55:09;19.20;60.90
35381;DHT22;21486;51.916;8.378;2023-05-20T11:57:37;19.20;60.80
35381;DHT22;21486;51.916;8.378;2023-05-20T12:00:02;19.40;60.60
35381;DHT22;21486;51.916;8.378;2023-05-20T12:02:31;19.60;60.80
35381;DHT22;21486;51.916;8.378;2023-05-20T12:04:57;19.90;61.70
35381;DHT22;21486;51.916;8.378;2023-05-20T12:07:22;20.00;60.00
35381;DHT22;21486;51.916;8.378;2023-05-20T12:09:48;20.20;58.80
35381;DHT22;21486;51.916;8.378;2023-05-20T12:12:13;19.60;59.30
35381;DHT22;21486;51.916;8.378;2023-05-20T12:14:39;19.70;59.40
35381;DHT22;21486;51.916;8.378;2023-05-20T12:17:04;20.10;60.70
35381;DHT22;21486;51.916;8.378;2023-05-20T12:19:30;20.70;58.90
35381;DHT22;21486;51.916;8.378;2023-05-20T12:21:55;20.90;57.80
35381;DHT22;21486;51.916;8.378;2023-05-20T12:24:21;20.80;57.50
35381;DHT22;21486;51.916;8.378;2023-05-20T12:26:46;20.70;58.50
35381;DHT22;21486;51.916;8.378;2023-05-20T12:29:12;20.70;57.00
35381;DHT22;21486;51.916;8.378;2023-05-20T12:31:37;20.50;58.00
35381;DHT22;21486;51.916;8.378;2023-05-20T12:34:03;20.30;58.00
35381;DHT22;21486;51.916;8.378;2023-05-20T12:36:28;20.20;58.20
35381;DHT22;21486;51.916;8.378;2023-05-20T12:38:54;20.20;58.80
35381;DHT22;21486;51.916;8.378;2023-05-20T12:41:20;20.10;58.80
35381;DHT22;21486;51.916;8.378;2023-05-20T12:43:46;19.90;58.90
35381;DHT22;21486;51.916;8.378;2023-05-20T12:46:11;19.70;59.70
35381;DHT22;21486;51.916;8.378;2023-05-20T12:48:37;19.70;60.30
35381;DHT22;21486;51.916;8.378;2023-05-20T12:51:02;19.40;60.70
35381;DHT22;21486;51.916;8.378;2023-05-20T12:53:28;19.50;60.10
35381;DHT22;21486;51.916;8.378;2023-05-20T12:55:53;19.80;61.00
35381;DHT22;21486;51.916;8.378;2023-05-20T12:58:19;19.90;59.10
35381;DHT22;21486;51.916;8.378;2023-05-20T13:00:44;19.80;59.90
35381;DHT22;21486;51.916;8.378;2023-05-20T13:03:10;19.90;60.20
35381;DHT22;21486;51.916;8.378;2023-05-20T13:05:35;19.90;60.40
35381;DHT22;21486;51.916;8.378;2023-05-20T13:08:01;19.70;60.10
35381;DHT22;21486;51.916;8.378;2023-05-20T13:10:26;19.30;60.60
35381;DHT22;21486;51.916;8.378;2023-05-20T13:12:52;19.20;61.40
35381;DHT22;21486;51.916;8.378;2023-05-20T13:15:18;19.40;61.40
35381;DHT22;21486;51.916;8.378;2023-05-20T13:17:43;19.70;60.90
35381;DHT22;21486;51.916;8.378;2023-05-20T13:20:09;20.00;59.30
35381;DHT22;21486;51.916;8.378;2023-05-20T13:22:35;19.90;59.30
35381;DHT22;21486;51.916;8.378;2023-05-20T13:25:01;19.90;60.00
35381;DHT22;21486;51.916;8.378;2023-05-20T13:27:26;19.80;60.10
35381;DHT22;21486;51.916;8.378;2023-05-20T13:29:52;20.00;59.30
35381;DHT22;21486;51.916;8.378;2023-05-20T13:32:18;20.10;58.30
35381;DHT22;21486;51.916;8.378;2023-05-20T13:34:43;20.30;60.80
35381;DHT22;21486;51.916;8.378;2023-05-20T13:37:09;20.80;58.90
35381;DHT22;21486;51.916;8.378;2023-05-20T13:39:34;20.70;57.60
35381;DHT22;21486;51.916;8.378;2023-05-20T13:42:00;20.40;57.80
35381;DHT22;21486;51.916;8.378;2023-05-20T13:44:26;20.50;59.20
35381;DHT22;21486;51.916;8.378;2023-05-20T13:46:51;19.90;58.70
35381;DHT22;21486;51.916;8.378;2023-05-20T13:49:17;19.90;59.80
35381;DHT22;21486;51.916;8.378;2023-05-20T13:51:42;19.80;59.10
35381;DHT22;21486;51.916;8.378;2023-05-20T13:54:08;19.50;60.30
35381;DHT22;21486;51.916;8.378;2023-05-20T13:56:34;19.40;60.80
35381;DHT22;21486;51.916;8.378;2023-05-20T13:58:59;19.50;60.50
35381;DHT22;21486;51.916;8.378;2023-05-20T14:01:26;19.20;61.30
35381;DHT22;21486;51.916;8.378;2023-05-20T14:03:52;19.20;62.60
35381;DHT22;21486;51.916;8.378;2023-05-20T14:06:17;19.50;62.70
35381;DHT22;21486;51.916;8.378;2023-05-20T14:08:44;19.70;60.70
35381;DHT22;21486;51.916;8.378;2023-05-20T14:11:10;19.80;61.00
35381;DHT22;21486;51.916;8.378;2023-05-20T14:13:36;19.80;61.00
35381;DHT22;21486;51.916;8.378;2023-05-20T14:16:01;19.70;60.70
35381;DHT22;21486;51.916;8.378;2023-05-20T14:18:27;19.50;60.40
35381;DHT22;21486;51.916;8.378;2023-05-20T14:20:52;19.50;61.30
35381;DHT22;21486;51.916;8.378;2023-05-20T14:23:18;19.50;61.20
35381;DHT22;21486;51.916;8.378;2023-05-20T14:25:43;19.40;61.50
35381;DHT22;21486;51.916;8.378;2023-05-20T14:28:09;19.40;61.80
35381;DHT22;21486;51.916;8.378;2023-05-20T14:30:36;19.50;61.50
35381;DHT22;21486;51.916;8.378;2023-05-20T14:33:02;19.70;61.40
35381;DHT22;21486;51.916;8.378;2023-05-20T14:35:27;19.60;61.70
35381;DHT22;21486;51.916;8.378;2023-05-20T14:37:53;19.50;61.30
35381;DHT22;21486;51.916;8.378;2023-05-20T14:40:18;19.20;61.70
35381;DHT22;21486;51.916;8.378;2023-05-20T14:42:45;19.10;62.10
35381;DHT22;21486;51.916;8.378;2023-05-20T14:45:10;19.00;62.20
35381;DHT22;21486;51.916;8.378;2023-05-20T14:47:36;18.90;62.60
35381;DHT22;21486;51.916;8.378;2023-05-20T14:50:05;18.90;63.40
35381;DHT22;21486;51.916;8.378;2023-05-20T14:52:30;18.90;63.80
35381;DHT22;21486;51.916;8.378;2023-05-20T14:54:56;19.00;63.10
35381;DHT22;21486;51.916;8.378;2023-05-20T14:57:21;18.90;64.40
35381;DHT22;21486;51.916;8.378;2023-05-20T14:59:47;19.00;63.70
35381;DHT22;21486;51.916;8.378;2023-05-20T15:02:15;19.10;63.90
35381;DHT22;21486;51.916;8.378;2023-05-20T15:04:41;18.90;63.60
35381;DHT22;21486;51.916;8.378;2023-05-20T15:07:08;18.70;64.30
35381;DHT22;21486;51.916;8.378;2023-05-20T15:09:34;18.60;64.80
35381;DHT22;21486;51.916;8.378;2023-05-20T15:11:59;18.40;65.20
35381;DHT22;21486;51.916;8.378;2023-05-20T15:14:25;18.40;66.00
35381;DHT22;21486;51.916;8.378;2023-05-20T15:16:51;18.50;65.70
35381;DHT22;21486;51.916;8.378;2023-05-20T15:19:16;18.50;65.30
35381;DHT22;21486;51.916;8.378;2023-05-20T15:21:42;18.50;66.40
35381;DHT22;21486;51.916;8.378;2023-05-20T15:24:07;18.70;65.20
35381;DHT22;21486;51.916;8.378;2023-05-20T15:26:33;18.60;65.00
35381;DHT22;21486;51.916;8.378;2023-05-20T15:28:58;18.50;65.40